Aérodrome :
LOGIN :

S'inscrire | Disclaimer

   EN    FR    IT 

 










Légende :    VFR   VFR Marginal   IFR   IFR Intensif   IFR Très Intensif
Visi : 
Plafond : 
>= 8 km
>= 3000ft
5 à 8 km
1000 à 3000 ft
1500m à 5 km
500 à 1000 ft
800 à 1500m
200 à 500 ft
< 800m
< 200 ft
Symboles :   Orages  Brouillard  Fortes neiges  Fortes précipitations  Vent > 20 kt
SIGMETs :   Divers  Orages  Givrage  Turbulence  Onde Orograph.  Cendres Volcan.






- Altitude de l'aérodrome : 42 ft
- Code IATA : KGD


UMKK - Khrabrava - Kaliningrad

DERNIER METAR :
  • 190500Z 21005MPS 9999 BKN031 03/00 Q1010 R24/290195 NOSIG RMK QFE756/1008

METARs EXPIRÉS :
  • 190430Z 21005MPS 9999 BKN027 04/01 Q1010 R24/290195 NOSIG RMK QFE756/1008
  • 190400Z 22006MPS 9999 BKN024 04/01 Q1010 R24/290195 NOSIG RMK QFE756/1008
  • 190330Z 21005MPS 9999 BKN023 04/01 Q1010 R24/290195 NOSIG RMK QFE756/1009
  • 190300Z 22005MPS 9999 BKN024 04/01 Q1010 R24/290195 NOSIG RMK QFE756/1009
  • 190230Z 22006MPS 9999 BKN025 04/01 Q1010 R24/290195 NOSIG RMK QFE756/1009
  • 190200Z 22005MPS 9999 BKN027 04/01 Q1010 R24/290195 NOSIG RMK QFE756/1009

TAF TAF UMKK
Valide du 19 à 03h jusqu'au 20 à 03h UTC


190200Z 1903/2003 22007G12MPS 9999 SCT011 BKN020
TEMPO 1903/1906 5000 -SHRA BKN012CB
BECMG 1906/1908 20008G13MPS
TEMPO 1908/1920 3100 -SHRA SCT011 BKN015CB
BECMG 1918/1920 25003G08MPS
TEMPO 1920/2003 28006MPS 4000 -SHRA BR BKN005 BKN012CB



MET'MAP, la Météo Aéronautique d'un coup d'oeil ! - Copyright ORBIFLY Décembre 2007 - Disclaimer

ORBIFLY MET'MAP TEAM :

Programmation & Développement : Alexandra Zaïnal
Sur une idée originale de : Baudouin d'Aumeries
Assistance à la programmation : Marc-Olivier Méhu
Soutien technique & logistique : Manuel Goepfert

Contact : metmap@orbifly.com




SOURCES & CREDITS :

   NOAA